Terminal Aerodrome Forecast
Issued by NWS

Home | Current Version | Previous Version | Text Only | Print | Product List | Glossary On
Versions: 1 2 3 4 5 6 7 8 9 10 11 12 13 14 15 16 17 18 19 20 21 22 23 24 25 26 27 28
000
FTUS44 KOUN 241724
TAFHBR
TAF
KHBR 241724Z 2418/2518 16012KT P6SM BKN015
      TEMPO 2418/2422 4SM -TSRA BR BKN008 OVC015CB
     FM242200 16013KT P6SM BKN035
     FM250500 16012KT P6SM OVC012
     FM251500 18015G23KT P6SM BKN035=

USA.gov is the U.S. government's official web portal to all federal, state and local government web resources and services.